Time;durP1;ratioP1;P1;durP2;ratioP2;P2;SDS_P1;SDS_P2;PMS_P1;PMS_P2;Temp;Humidity;BMP_temperature;BMP_pressure;BME280_temperature;BME280_humidity;BME280_pressure;Samples;Min_cycle;Max_cycle;Signal;HPM_P1;HPM_P2
2023/10/24 00:00:14;;;;;;;2.60;1.58;;;;;;;11.73;100.00;100323.50;4953379;28;97770;-28
2023/10/24 00:02:39;;;;;;;1.75;1.30;;;;;;;11.77;100.00;100325.88;4952490;28;101049;-28
2023/10/24 00:05:06;;;;;;;1.95;1.40;;;;;;;11.77;100.00;100316.88;4953914;28;96597;-28
2023/10/24 00:07:31;;;;;;;2.58;1.05;;;;;;;11.78;100.00;100321.34;4968706;28;96993;-28
2023/10/24 00:09:57;;;;;;;2.05;1.30;;;;;;;11.78;100.00;100315.91;4953167;28;97856;-28
2023/10/24 00:12:22;;;;;;;2.60;1.60;;;;;;;11.81;100.00;100307.53;4953447;28;97450;-28
2023/10/24 00:14:48;;;;;;;3.03;1.70;;;;;;;11.81;100.00;100302.97;4953709;28;97018;-28
2023/10/24 00:17:13;;;;;;;2.45;1.60;;;;;;;11.82;100.00;100304.72;4953545;28;96898;-27
2023/10/24 00:19:38;;;;;;;1.90;1.38;;;;;;;11.78;100.00;100299.63;4953216;28;99358;-28
2023/10/24 00:22:04;;;;;;;1.67;1.33;;;;;;;11.77;100.00;100287.88;4953250;28;98685;-28
2023/10/24 00:24:29;;;;;;;2.20;1.30;;;;;;;11.78;100.00;100297.78;4953610;28;96756;-27
2023/10/24 00:26:55;;;;;;;3.38;1.70;;;;;;;11.76;100.00;100291.59;4953747;28;96831;-27
2023/10/24 00:29:21;;;;;;;3.10;2.05;;;;;;;11.79;100.00;100288.63;4951680;28;101208;-27
2023/10/24 00:31:47;;;;;;;2.75;1.83;;;;;;;11.78;100.00;100292.34;4951680;28;100942;-28
2023/10/24 00:34:12;;;;;;;4.75;1.70;;;;;;;11.79;100.00;100293.22;4953006;28;96727;-28
2023/10/24 00:36:40;;;;;;;3.45;2.28;;;;;;;11.74;100.00;100284.56;4953180;28;96910;-28
2023/10/24 00:39:06;;;;;;;3.65;2.38;;;;;;;11.76;100.00;100290.75;4951720;28;101092;-28
2023/10/24 00:41:31;;;;;;;3.75;2.30;;;;;;;11.71;100.00;100290.22;4952959;28;99434;-29
2023/10/24 00:43:57;;;;;;;2.83;1.73;;;;;;;11.68;100.00;100284.03;4951563;28;96874;-27
2023/10/24 00:46:23;;;;;;;3.22;2.03;;;;;;;11.69;100.00;100283.03;4952751;28;96836;-27
2023/10/24 00:48:49;;;;;;;3.10;2.00;;;;;;;11.69;100.00;100282.19;4967880;28;101183;-28
2023/10/24 00:51:30;;;;;;;4.80;2.80;;;;;;;11.73;100.00;100291.84;4940793;28;97614;-28
2023/10/24 00:53:56;;;;;;;3.35;2.20;;;;;;;11.72;100.00;100287.38;4953076;28;96658;-27
2023/10/24 00:56:22;;;;;;;3.22;2.22;;;;;;;11.71;100.00;100285.66;4967939;28;96825;-27
2023/10/24 00:58:48;;;;;;;5.20;2.42;;;;;;;11.73;100.00;100291.84;4952377;28;97900;-27
2023/10/24 01:01:15;;;;;;;5.22;2.45;;;;;;;11.69;100.00;100276.75;4952625;28;99679;-27
2023/10/24 01:03:42;;;;;;;2.85;2.03;;;;;;;11.70;100.00;100289.34;4967785;28;96617;-28
2023/10/24 01:06:09;;;;;;;4.00;2.10;;;;;;;11.69;100.00;100287.63;4967820;28;97003;-29
2023/10/24 01:08:35;;;;;;;2.85;1.98;;;;;;;11.65;100.00;100283.41;4967676;28;101386;-27
2023/10/24 01:11:01;;;;;;;8.60;2.92;;;;;;;11.67;100.00;100289.56;4952370;28;98935;-28
2023/10/24 01:13:26;;;;;;;5.03;2.05;;;;;;;11.63;100.00;100277.22;4951899;28;96744;-27
2023/10/24 01:15:52;;;;;;;3.55;2.45;;;;;;;11.65;100.00;100280.69;4952960;28;96754;-28
2023/10/24 01:18:17;;;;;;;6.60;2.33;;;;;;;11.62;100.00;100280.91;4952489;28;99315;-28
2023/10/24 01:20:43;;;;;;;4.10;2.38;;;;;;;11.66;100.00;100291.44;4952447;28;98949;-27
2023/10/24 01:23:09;;;;;;;4.40;2.30;;;;;;;11.62;100.00;100273.63;4952310;28;96756;-28
2023/10/24 01:25:39;;;;;;;3.95;2.15;;;;;;;11.65;100.00;100286.09;4967684;28;96909;-28
2023/10/24 01:28:05;;;;;;;4.13;2.20;;;;;;;11.62;100.00;100272.78;4967216;28;101222;-29
2023/10/24 01:30:31;;;;;;;4.15;2.42;;;;;;;11.64;100.00;100284.38;4967296;28;99933;-27
2023/10/24 01:32:56;;;;;;;4.30;2.60;;;;;;;11.68;100.00;100281.31;4952546;28;96653;-27
2023/10/24 01:35:21;;;;;;;3.53;2.15;;;;;;;11.65;100.00;100269.81;4952447;28;96873;-28
2023/10/24 01:37:47;;;;;;;3.10;1.98;;;;;;;11.69;100.00;100279.47;4952835;28;97415;-28
2023/10/24 01:40:12;;;;;;;4.55;2.72;;;;;;;11.70;100.00;100278.47;4952750;28;97914;-28
2023/10/24 01:42:38;;;;;;;4.35;2.53;;;;;;;11.65;100.00;100273.41;4952005;28;96779;-28
2023/10/24 01:45:04;;;;;;;3.30;2.05;;;;;;;11.69;100.00;100276.75;4967218;28;96884;-27
2023/10/24 01:47:30;;;;;;;3.88;2.78;;;;;;;11.71;100.00;100280.22;4951051;28;98144;-28
2023/10/24 01:49:55;;;;;;;4.32;2.72;;;;;;;11.68;100.00;100265.06;4952227;28;97981;-28
2023/10/24 01:52:21;;;;;;;4.45;2.70;;;;;;;11.71;100.00;100272.09;4952412;28;96761;-28
2023/10/24 01:54:46;;;;;;;4.40;2.70;;;;;;;11.69;100.00;100269.47;4951800;28;96889;-28
2023/10/24 01:57:12;;;;;;;5.65;2.53;;;;;;;11.66;100.00;100271.56;4952058;28;97847;-27
2023/10/24 01:59:37;;;;;;;3.95;2.53;;;;;;;11.67;100.00;100273.28;4951813;28;99418;-28
2023/10/24 02:02:03;;;;;;;3.97;2.22;;;;;;;11.65;100.00;100267.13;4952352;28;96549;-27
2023/10/24 02:04:28;;;;;;;3.97;2.83;;;;;;;11.65;100.00;100273.41;4952575;28;96822;-29
2023/10/24 02:06:53;;;;;;;3.17;2.25;;;;;;;11.64;100.00;100270.81;4952019;28;99438;-28
2023/10/24 02:09:19;;;;;;;5.18;3.00;;;;;;;11.64;100.00;100266.25;4952135;28;97837;-29
2023/10/24 02:11:44;;;;;;;3.60;2.25;;;;;;;11.65;100.00;100269.81;4951355;28;96671;-28
2023/10/24 02:14:09;;;;;;;4.95;3.05;;;;;;;11.64;100.00;100273.53;4952205;28;96796;-28
2023/10/24 02:16:35;;;;;;;3.80;2.65;;;;;;;11.64;100.00;100268.09;4951673;28;99056;-27
2023/10/24 02:19:00;;;;;;;3.15;2.13;;;;;;;11.63;100.00;100266.34;4951883;28;97296;-27
2023/10/24 02:21:25;;;;;;;4.57;2.70;;;;;;;11.61;100.00;100263.78;4952128;28;96568;-28
2023/10/24 02:23:51;;;;;;;4.32;2.50;;;;;;;11.64;100.00;100262.69;4953689;28;96633;-27
2023/10/24 02:26:16;;;;;;;4.65;2.53;;;;;;;11.61;100.00;100252.94;4954644;28;99705;-28
2023/10/24 02:28:42;;;;;;;4.60;2.60;;;;;;;11.58;100.00;100249.56;4955491;28;97911;-28
2023/10/24 02:31:07;;;;;;;5.10;2.88;;;;;;;11.55;100.00;100247.97;4955258;28;96482;-28
2023/10/24 02:33:33;;;;;;;3.08;2.53;;;;;;;11.58;100.00;100255.84;4955299;28;96802;-28
2023/10/24 02:36:10;;;;;;;3.28;2.55;;;;;;;11.60;100.00;100261.19;4954663;28;97973;-28
2023/10/24 02:38:36;;;;;;;4.03;2.45;;;;;;;11.54;100.00;100250.81;4953446;28;100972;-28
2023/10/24 02:41:03;;;;;;;5.60;2.70;;;;;;;11.55;100.00;100247.09;4969812;28;96784;-27
2023/10/24 02:43:29;;;;;;;4.70;3.25;;;;;;;11.56;100.00;100249.72;4954780;28;96946;-27
2023/10/24 02:45:55;;;;;;;3.85;2.40;;;;;;;11.53;100.00;100243.63;4953497;28;97909;-28
2023/10/24 02:48:20;;;;;;;5.53;3.22;;;;;;;11.54;100.00;100248.94;4953463;28;101054;-29
2023/10/24 02:50:52;;;;;;;6.30;3.13;;;;;;;11.56;100.00;100257.84;4954793;28;96628;-28
2023/10/24 02:53:17;;;;;;;4.30;2.27;;;;;;;11.56;100.00;100254.25;4955370;28;96564;-28
2023/10/24 02:55:42;;;;;;;3.95;2.35;;;;;;;11.51;100.00;100253.72;4954159;28;99426;-27
2023/10/24 02:58:08;;;;;;;6.30;2.60;;;;;;;11.53;100.00;100259.91;4954607;28;99044;-27
2023/10/24 03:00:33;;;;;;;5.40;3.33;;;;;;;11.54;100.00;100273.38;4954483;28;96580;-27
2023/10/24 03:02:59;;;;;;;5.68;2.95;;;;;;;11.50;100.00;100269.13;4954681;28;96916;-28
2023/10/24 03:05:24;;;;;;;4.20;2.40;;;;;;;11.50;100.00;100261.00;4954594;28;97408;-28
2023/10/24 03:07:49;;;;;;;5.25;2.83;;;;;;;11.52;100.00;100269.91;4954599;28;97763;-28
2023/10/24 03:10:15;;;;;;;6.45;2.67;;;;;;;11.50;100.00;100260.16;4954258;28;96673;-28
2023/10/24 03:12:40;;;;;;;4.90;2.58;;;;;;;11.51;100.00;100264.56;4954486;28;96942;-27
2023/10/24 03:15:06;;;;;;;6.30;3.03;;;;;;;11.52;100.00;100274.47;4954534;28;97477;-28
2023/10/24 03:17:31;;;;;;;4.43;2.47;;;;;;;11.51;100.00;100270.00;4954897;28;98298;-28
2023/10/24 03:19:56;;;;;;;5.10;3.20;;;;;;;11.48;100.00;100262.97;4954389;28;96464;-27
2023/10/24 03:22:22;;;;;;;4.50;2.67;;;;;;;11.44;100.00;100262.34;4954548;28;96798;-27
2023/10/24 03:24:49;;;;;;;4.30;2.95;;;;;;;11.51;100.00;100275.41;4953691;28;98019;-28
2023/10/24 03:27:15;;;;;;;5.50;2.78;;;;;;;11.48;100.00;100271.97;4968860;28;102462;-28
2023/10/24 03:29:40;;;;;;;5.78;3.50;;;;;;;11.46;100.00;100273.06;4954469;28;96695;-28
2023/10/24 03:32:06;;;;;;;5.80;2.63;;;;;;;11.45;100.00;100269.47;4954215;28;96865;-28
2023/10/24 03:34:34;;;;;;;5.03;2.85;;;;;;;11.47;100.00;100275.66;4968239;28;100881;-27
2023/10/24 03:36:59;;;;;;;5.88;3.90;;;;;;;11.48;100.00;100279.22;4953967;28;97425;-28
2023/10/24 03:39:25;;;;;;;4.47;2.42;;;;;;;11.43;100.00;100271.44;4953915;28;96448;-28
2023/10/24 03:41:50;;;;;;;5.18;2.70;;;;;;;11.51;100.00;100283.56;4954376;28;96895;-28
2023/10/24 03:44:16;;;;;;;4.78;2.85;;;;;;;11.42;100.00;100283.28;4953737;28;98057;-27
2023/10/24 03:46:41;;;;;;;5.00;2.92;;;;;;;11.47;100.00;100281.09;4953241;28;99765;-27
2023/10/24 03:49:06;;;;;;;4.78;2.70;;;;;;;11.44;100.00;100281.31;4953604;28;96543;-28
2023/10/24 03:51:32;;;;;;;4.70;2.25;;;;;;;11.41;100.00;100281.53;4953808;28;96858;-28
2023/10/24 03:53:57;;;;;;;5.45;2.78;;;;;;;11.43;100.00;100293.13;4953490;28;97442;-28
2023/10/24 03:56:22;;;;;;;4.57;2.70;;;;;;;11.42;100.00;100291.41;4953859;28;98075;-28
2023/10/24 03:58:48;;;;;;;5.28;2.60;;;;;;;11.39;100.00;100288.94;4953998;28;96572;-29
2023/10/24 04:01:13;;;;;;;4.35;2.10;;;;;;;11.39;100.00;100280.81;4954095;28;96819;-27
2023/10/24 04:03:38;;;;;;;5.00;2.85;;;;;;;11.35;100.00;100279.28;4953464;28;98996;-27
2023/10/24 04:06:10;;;;;;;3.13;2.30;;;;;;;11.40;100.00;100279.81;4953997;28;97220;-27
2023/10/24 04:08:35;;;;;;;3.00;1.98;;;;;;;11.35;100.00;100268.44;4952422;28;96652;-28
2023/10/24 04:11:00;;;;;;;4.13;2.58;;;;;;;11.38;100.00;100283.63;4953718;28;96946;-27
2023/10/24 04:13:25;;;;;;;3.22;2.10;;;;;;;11.37;100.00;100284.56;4953002;28;98079;-27
2023/10/24 04:15:57;;;;;;;3.53;2.08;;;;;;;11.36;100.00;100263.88;4953487;28;97260;-27
2023/10/24 04:18:22;;;;;;;3.58;1.88;;;;;;;11.36;100.00;100275.59;4952184;28;96659;-29
2023/10/24 04:20:48;;;;;;;4.60;2.63;;;;;;;11.36;100.00;100274.72;4953528;28;96883;-28
2023/10/24 04:23:14;;;;;;;3.67;2.47;;;;;;;11.43;100.00;100284.13;4953218;28;99588;-27
2023/10/24 04:25:40;;;;;;;4.53;2.45;;;;;;;11.42;100.00;100286.00;4968245;28;101491;-28
2023/10/24 04:28:05;;;;;;;6.97;3.58;;;;;;;11.41;100.00;100273.41;4953497;28;96541;-28
2023/10/24 04:30:31;;;;;;;6.88;2.65;;;;;;;11.36;100.00;100262.03;4953805;28;96798;-28
2023/10/24 04:32:56;;;;;;;5.15;3.10;;;;;;;11.36;100.00;100259.31;4953160;28;98055;-27
2023/10/24 04:35:22;;;;;;;4.07;2.60;;;;;;;11.38;100.00;100270.91;4953246;28;97871;-27
2023/10/24 04:37:47;;;;;;;4.70;2.38;;;;;;;11.36;100.00;100262.03;4951496;28;96514;-28
2023/10/24 04:40:13;;;;;;;6.32;2.85;;;;;;;11.35;100.00;100263.03;4953422;28;96794;-27
2023/10/24 04:42:39;;;;;;;3.47;2.42;;;;;;;11.36;100.00;100258.47;4951564;28;101330;-27
2023/10/24 04:45:05;;;;;;;4.35;2.67;;;;;;;11.32;100.00;100252.41;4952929;28;97767;-28
2023/10/24 04:47:30;;;;;;;5.53;2.80;;;;;;;11.29;100.00;100251.75;4950988;28;96691;-28
2023/10/24 04:49:56;;;;;;;5.13;2.90;;;;;;;11.26;100.00;100233.88;4953181;28;96881;-29
2023/10/24 04:52:21;;;;;;;4.70;2.95;;;;;;;11.29;100.00;100240.91;4952770;28;97770;-28
2023/10/24 04:54:46;;;;;;;4.15;2.53;;;;;;;11.30;100.00;100245.34;4953001;28;97326;-28
2023/10/24 04:57:12;;;;;;;5.95;2.60;;;;;;;11.28;100.00;100234.63;4953135;28;96600;-27
2023/10/24 04:59:37;;;;;;;4.43;2.60;;;;;;;11.35;100.00;100246.75;4952766;28;96886;-27
2023/10/24 05:02:03;;;;;;;5.70;3.22;;;;;;;11.36;100.00;100237.63;4952439;28;97963;-27
2023/10/24 05:04:29;;;;;;;5.25;2.88;;;;;;;11.32;100.00;100236.16;4967612;28;100722;-29
2023/10/24 05:06:55;;;;;;;4.65;3.03;;;;;;;11.33;100.00;100240.56;4967925;28;96647;-27
2023/10/24 05:09:21;;;;;;;5.93;3.25;;;;;;;11.31;100.00;100225.41;4967926;28;96877;-27
2023/10/24 05:11:47;;;;;;;3.88;2.17;;;;;;;11.31;100.00;100228.13;4967943;28;101135;-28
2023/10/24 05:14:13;;;;;;;4.10;2.05;;;;;;;11.31;100.00;100228.97;4952411;28;99432;-28
2023/10/24 05:16:39;;;;;;;4.53;2.35;;;;;;;11.30;100.00;100227.25;4952688;28;96474;-28
2023/10/24 05:19:05;;;;;;;6.68;3.53;;;;;;;11.32;100.00;100224.41;4951756;28;96857;-27
2023/10/24 05:21:31;;;;;;;6.22;2.70;;;;;;;11.29;100.00;100221.94;4952255;28;99305;-28
2023/10/24 05:23:56;;;;;;;3.75;2.33;;;;;;;11.27;100.00;100211.19;4967528;28;100872;-28
2023/10/24 05:26:22;;;;;;;4.22;2.65;;;;;;;11.27;100.00;100206.66;4952222;28;96509;-28
2023/10/24 05:28:48;;;;;;;5.22;3.10;;;;;;;11.31;100.00;100211.84;4952630;28;96816;-28
2023/10/24 05:31:13;;;;;;;4.40;2.80;;;;;;;11.30;100.00;100215.53;4952445;28;98071;-28
2023/10/24 05:33:41;;;;;;;4.78;2.53;;;;;;;11.30;100.00;100211.00;4952495;28;96754;-31
2023/10/24 05:36:06;;;;;;;4.68;2.25;;;;;;;11.26;100.00;100212.19;4952400;28;96627;-28
2023/10/24 05:38:32;;;;;;;9.20;3.17;;;;;;;11.28;100.00;100199.38;4952304;28;96942;-28
2023/10/24 05:40:59;;;;;;;4.22;2.70;;;;;;;11.29;100.00;100214.66;4952326;28;98570;-27
2023/10/24 05:43:25;;;;;;;3.38;2.25;;;;;;;11.29;100.00;100213.81;4967539;28;101146;-28
2023/10/24 05:45:50;;;;;;;5.10;2.78;;;;;;;11.25;100.00;100208.63;4952145;28;96868;-28
2023/10/24 05:48:15;;;;;;;4.82;3.30;;;;;;;11.31;100.00;100222.69;4951931;28;96839;-28
2023/10/24 05:50:43;;;;;;;5.28;2.70;;;;;;;11.29;100.00;100221.94;4951511;28;98959;-27
2023/10/24 05:53:08;;;;;;;5.60;2.60;;;;;;;11.24;100.00;100228.56;4967118;28;99997;-28
2023/10/24 05:55:34;;;;;;;3.85;2.40;;;;;;;11.27;100.00;100227.47;4952231;28;96998;-28
2023/10/24 05:57:59;;;;;;;5.68;2.90;;;;;;;11.27;100.00;100222.03;4952586;28;96944;-27
2023/10/24 06:00:25;;;;;;;5.43;2.83;;;;;;;11.29;100.00;100222.78;4955604;28;97567;-27
2023/10/24 06:02:50;;;;;;;4.80;3.15;;;;;;;11.29;100.00;100225.50;4955087;28;97900;-28
2023/10/24 06:05:15;;;;;;;4.03;2.60;;;;;;;11.25;100.00;100232.16;4954005;28;97015;-28
2023/10/24 06:07:41;;;;;;;3.63;2.17;;;;;;;11.25;100.00;100232.16;4953859;28;96811;-28
2023/10/24 06:10:07;;;;;;;4.30;2.67;;;;;;;11.20;100.00;100224.38;4953957;28;102391;-29
2023/10/24 06:12:32;;;;;;;4.07;2.63;;;;;;;11.24;100.00;100235.84;4968838;28;101286;-32
2023/10/24 06:14:58;;;;;;;5.13;2.80;;;;;;;11.21;100.00;100236.94;4953962;28;97005;-29
2023/10/24 06:17:23;;;;;;;4.13;2.45;;;;;;;11.22;100.00;100245.91;4954066;28;96842;-33
2023/10/24 06:19:49;;;;;;;3.72;2.53;;;;;;;11.19;100.00;100251.56;4954747;28;99276;-27
2023/10/24 06:22:15;;;;;;;4.50;2.88;;;;;;;11.20;100.00;100245.16;4955066;28;99229;-28
2023/10/24 06:24:41;;;;;;;5.93;2.75;;;;;;;11.18;100.00;100241.72;4955115;28;96756;-28
2023/10/24 06:27:09;;;;;;;5.15;2.50;;;;;;;11.22;100.00;100251.34;4955258;28;96882;-28
2023/10/24 06:29:34;;;;;;;4.50;2.72;;;;;;;11.20;100.00;100246.06;4969925;28;101139;-27
2023/10/24 06:31:59;;;;;;;4.47;2.75;;;;;;;11.16;100.00;100235.56;4955555;28;97263;-27
2023/10/24 06:34:25;;;;;;;5.60;3.20;;;;;;;11.17;100.00;100245.41;4955024;28;96530;-28
2023/10/24 06:36:50;;;;;;;5.53;3.47;;;;;;;11.19;100.00;100251.56;4955434;28;96806;-28
2023/10/24 06:39:16;;;;;;;4.95;3.10;;;;;;;11.24;100.00;100249.38;4954739;28;97913;-28
2023/10/24 06:41:41;;;;;;;4.82;2.53;;;;;;;11.20;100.00;100254.19;4953479;28;99341;-28
2023/10/24 06:44:06;;;;;;;5.32;2.78;;;;;;;11.19;100.00;100254.28;4954561;28;96644;-28
2023/10/24 06:46:31;;;;;;;5.82;3.53;;;;;;;11.22;100.00;100267.59;4954551;28;96905;-27
2023/10/24 06:48:57;;;;;;;6.22;3.55;;;;;;;11.22;100.00;100267.59;4954593;28;101334;-28
2023/10/24 06:51:23;;;;;;;4.82;2.75;;;;;;;11.23;100.00;100264.78;4954588;28;98852;-28
2023/10/24 06:53:48;;;;;;;5.68;3.58;;;;;;;11.22;100.00;100278.44;4953209;28;96727;-28
2023/10/24 06:56:13;;;;;;;4.10;2.88;;;;;;;11.17;100.00;100277.94;4955462;28;96785;-29
2023/10/24 06:58:40;;;;;;;4.38;2.90;;;;;;;11.15;100.00;100278.03;4954792;28;97984;-28
2023/10/24 07:01:05;;;;;;;5.32;2.45;;;;;;;11.15;100.00;100275.31;4953189;28;100682;-27
2023/10/24 07:03:31;;;;;;;4.32;2.40;;;;;;;11.16;100.00;100279.78;4954143;28;96878;-27
2023/10/24 07:05:56;;;;;;;5.88;2.97;;;;;;;11.13;100.00;100274.59;4954819;28;96539;-27
2023/10/24 07:08:22;;;;;;;4.07;2.42;;;;;;;11.12;100.00;100267.41;4954381;28;99280;-28
2023/10/24 07:10:47;;;;;;;4.43;2.63;;;;;;;11.14;100.00;100275.44;4953354;28;96889;-28
2023/10/24 07:13:13;;;;;;;7.28;3.05;;;;;;;11.17;100.00;100267.94;4985984;28;96732;-28
2023/10/24 07:15:41;;;;;;;4.97;2.72;;;;;;;11.17;100.00;100264.38;4954398;28;96828;-28
2023/10/24 07:18:07;;;;;;;3.53;2.30;;;;;;;11.15;100.00;100263.63;4954264;28;99613;-29
2023/10/24 07:20:37;;;;;;;5.35;3.22;;;;;;;11.17;100.00;100257.09;4954579;28;99115;-27
2023/10/24 07:23:03;;;;;;;5.90;3.28;;;;;;;11.25;100.00;100267.41;4954477;28;96692;-27
2023/10/24 07:25:29;;;;;;;5.60;3.88;;;;;;;11.22;100.00;100267.59;4953125;28;96844;-28
2023/10/24 07:27:55;;;;;;;4.32;2.83;;;;;;;11.21;100.00;100268.59;4968752;28;101520;-27
2023/10/24 07:30:22;;;;;;;5.68;3.45;;;;;;;11.21;100.00;100264.03;4968912;28;100703;-28
2023/10/24 07:32:48;;;;;;;3.35;2.58;;;;;;;11.26;100.00;100269.13;4969080;28;96695;-28
2023/10/24 07:35:13;;;;;;;4.85;3.33;;;;;;;11.27;100.00;100270.84;4954400;28;96775;-28
2023/10/24 07:37:38;;;;;;;5.13;3.28;;;;;;;11.31;100.00;100272.34;4954240;28;97976;-28
2023/10/24 07:40:04;;;;;;;5.22;3.30;;;;;;;11.35;100.00;100271.16;4954120;28;97817;-29
2023/10/24 07:42:30;;;;;;;4.82;2.95;;;;;;;11.35;100.00;100278.44;4954057;28;96617;-27
2023/10/24 07:44:56;;;;;;;3.78;2.85;;;;;;;11.36;100.00;100277.44;4953983;28;96840;-28
2023/10/24 07:47:21;;;;;;;5.50;3.42;;;;;;;11.37;100.00;100271.03;4953395;28;97551;-27
2023/10/24 07:49:47;;;;;;;5.38;2.92;;;;;;;11.38;100.00;100262.78;4954297;28;97426;-28
2023/10/24 07:52:12;;;;;;;5.90;2.65;;;;;;;11.40;100.00;100252.69;4953566;28;96731;-27
2023/10/24 07:54:37;;;;;;;4.03;2.78;;;;;;;11.45;100.00;100265.91;4953409;28;98916;-29
2023/10/24 07:57:04;;;;;;;5.13;2.85;;;;;;;11.45;100.00;100264.06;4953659;28;98872;-27
2023/10/24 07:59:30;;;;;;;5.47;2.90;;;;;;;11.48;100.00;100260.25;4952278;28;101216;-28
2023/10/24 08:01:56;;;;;;;4.53;2.90;;;;;;;11.45;100.00;100247.78;4953773;28;96719;-27
2023/10/24 08:04:22;;;;;;;5.53;2.83;;;;;;;11.55;100.00;100252.53;4953809;28;96811;-27
2023/10/24 08:06:47;;;;;;;4.88;2.90;;;;;;;11.51;100.00;100251.00;4953512;28;99678;-29
2023/10/24 08:09:13;;;;;;;4.55;2.65;;;;;;;11.56;100.00;100270.50;4953982;28;99412;-28
2023/10/24 08:11:38;;;;;;;4.20;2.42;;;;;;;11.57;100.00;100262.28;4953585;28;96477;-27
2023/10/24 08:14:03;;;;;;;5.03;3.58;;;;;;;11.57;100.00;100261.41;4953692;28;96937;-29
2023/10/24 08:16:29;;;;;;;4.28;2.70;;;;;;;11.59;100.00;100262.16;4952877;28;98021;-28
2023/10/24 08:18:54;;;;;;;3.42;2.38;;;;;;;11.60;100.00;100259.31;4953478;28;97709;-27
2023/10/24 08:21:19;;;;;;;4.50;3.00;;;;;;;11.62;100.00;100257.38;4953421;28;96892;-29
2023/10/24 08:23:45;;;;;;;3.88;2.53;;;;;;;11.58;100.00;100249.56;4953476;28;96892;-28
2023/10/24 08:26:10;;;;;;;4.72;3.03;;;;;;;11.66;100.00;100255.31;4953511;28;97939;-28
2023/10/24 08:28:35;;;;;;;4.95;2.92;;;;;;;11.71;100.00;100244.09;4953387;28;97764;-28
2023/10/24 08:31:00;;;;;;;5.10;3.20;;;;;;;11.77;100.00;100251.75;4953278;28;102094;-29
2023/10/24 08:33:28;;;;;;;4.45;3.03;;;;;;;11.80;100.00;100251.53;4953709;28;97752;-28
2023/10/24 08:35:53;;;;;;;4.05;2.78;;;;;;;11.81;100.00;100247.84;4953168;28;98048;-28
2023/10/24 08:38:19;;;;;;;5.30;2.92;;;;;;;11.82;100.00;100242.31;4953263;28;97361;-27
2023/10/24 08:40:44;;;;;;;3.42;2.28;;;;;;;11.85;100.00;100247.47;4952803;28;96609;-28
2023/10/24 08:43:09;;;;;;;5.53;2.58;;;;;;;11.92;100.00;100242.50;4953451;28;96844;-28
2023/10/24 08:45:35;;;;;;;5.93;2.15;;;;;;;11.92;100.00;100238.88;4952466;28;99439;-27
2023/10/24 08:48:05;;;;;;;3.15;2.08;;;;;;;11.84;100.00;100248.44;4952860;28;97861;-27
2023/10/24 08:50:31;;;;;;;2.53;1.92;;;;;;;11.86;100.00;100264.63;4968082;28;96598;-27
2023/10/24 08:52:57;;;;;;;2.15;1.52;;;;;;;11.86;100.00;100272.75;4951743;28;96944;-27
2023/10/24 08:55:23;;;;;;;4.00;1.92;;;;;;;11.81;100.00;100264.13;4952819;28;98407;-28
2023/10/24 08:57:49;;;;;;;4.28;2.58;;;;;;;11.85;100.00;100266.47;4951692;28;101391;-28
2023/10/24 09:00:16;;;;;;;4.47;2.83;;;;;;;11.81;100.00;100262.25;4984341;28;96654;-28
2023/10/24 09:02:43;;;;;;;4.10;2.22;;;;;;;11.86;100.00;100270.91;4951494;28;96983;-28
2023/10/24 09:05:12;;;;;;;6.72;2.28;;;;;;;11.78;100.00;100265.22;4952414;28;98135;-28
2023/10/24 09:07:38;;;;;;;2.97;1.63;;;;;;;11.79;100.00;100264.22;4967771;28;98942;-27
2023/10/24 09:10:05;;;;;;;3.80;2.15;;;;;;;11.81;100.00;100270.41;4951471;28;96610;-29
2023/10/24 09:12:32;;;;;;;4.55;2.25;;;;;;;11.76;100.00;100274.47;4950882;28;97347;-28
2023/10/24 09:14:58;;;;;;;3.63;1.67;;;;;;;11.72;100.00;100262.97;4967582;28;100857;-27
2023/10/24 09:17:24;;;;;;;2.67;1.75;;;;;;;11.80;100.00;100279.53;4967488;28;100861;-27
2023/10/24 09:19:50;;;;;;;2.78;1.80;;;;;;;11.76;100.00;100286.16;4967599;28;96641;-28
2023/10/24 09:22:17;;;;;;;5.25;2.28;;;;;;;11.71;100.00;100272.09;4967901;28;96967;-27
2023/10/24 09:24:48;;;;;;;2.92;1.88;;;;;;;11.77;100.00;100287.88;4967472;28;100679;-27
2023/10/24 09:27:14;;;;;;;6.05;3.00;;;;;;;11.70;100.00;100286.63;4967322;28;101203;-28
2023/10/24 09:29:40;;;;;;;3.97;2.40;;;;;;;11.76;100.00;100293.44;4952271;28;96759;-29
2023/10/24 09:32:06;;;;;;;4.65;2.50;;;;;;;11.80;100.00;100298.53;4952509;28;96539;-28
2023/10/24 09:34:33;;;;;;;3.75;2.40;;;;;;;11.75;100.00;100289.00;4954844;28;99421;-28
2023/10/24 09:37:06;;;;;;;2.90;2.28;;;;;;;11.75;100.00;100300.72;4954489;28;101160;-28
2023/10/24 09:39:32;;;;;;;3.78;2.78;;;;;;;11.77;100.00;100287.88;4954610;28;96683;-28
2023/10/24 09:41:58;;;;;;;4.15;2.28;;;;;;;11.69;100.00;100280.34;4955975;28;96724;-27
2023/10/24 09:44:24;;;;;;;6.28;2.60;;;;;;;11.76;100.00;100293.44;4955467;28;99866;-27
2023/10/24 09:46:51;;;;;;;6.28;2.78;;;;;;;11.71;100.00;100272.09;4970614;28;101292;-30
2023/10/24 09:49:18;;;;;;;6.47;3.10;;;;;;;11.69;100.00;100276.75;4970795;28;96481;-28
2023/10/24 09:51:44;;;;;;;7.40;3.45;;;;;;;11.71;100.00;100282.09;4954363;28;96879;-28
2023/10/24 09:54:11;;;;;;;5.03;3.05;;;;;;;11.75;100.00;100284.44;4953109;28;101394;-27
2023/10/24 09:56:37;;;;;;;5.28;3.25;;;;;;;11.71;100.00;100271.22;4970445;28;100844;-28
2023/10/24 09:59:02;;;;;;;5.28;3.55;;;;;;;11.76;100.00;100275.31;4955826;28;96604;-27
2023/10/24 10:01:28;;;;;;;7.20;3.83;;;;;;;11.75;100.00;100268.19;4955706;28;96810;-28
2023/10/24 10:04:00;;;;;;;5.07;3.45;;;;;;;11.76;100.00;100261.75;4955503;28;97468;-27
2023/10/24 10:06:27;;;;;;;7.50;3.30;;;;;;;11.79;100.00;100276.94;4955496;28;98598;-27
2023/10/24 10:08:55;;;;;;;4.75;3.00;;;;;;;11.72;100.00;100264.81;4954209;28;96905;-28
2023/10/24 10:11:22;;;;;;;4.80;2.72;;;;;;;11.81;100.00;100294.81;4954581;28;96852;-27
2023/10/24 10:13:53;;;;;;;3.83;2.80;;;;;;;11.81;100.00;100291.25;4970150;28;100953;-28
2023/10/24 10:16:26;;;;;;;6.25;3.58;;;;;;;11.81;100.00;100283.97;4955523;28;97935;-29
2023/10/24 10:19:13;;;;;;;5.10;3.17;;;;;;;11.82;100.00;100285.72;4969885;28;97019;-27
2023/10/24 10:21:51;;;;;;;4.38;2.70;;;;;;;11.81;100.00;100283.09;4955404;28;96822;-27
2023/10/24 10:24:22;;;;;;;5.03;3.13;;;;;;;11.80;100.00;100274.13;4955365;28;97637;-27
2023/10/24 10:27:12;;;;;;;5.87;3.10;;;;;;;11.84;100.00;100281.00;4955269;28;97380;-28
2023/10/24 10:30:03;;;;;;;3.08;2.33;;;;;;;11.85;100.00;100276.47;4954830;28;96634;-28
2023/10/24 10:32:36;;;;;;;3.65;2.60;;;;;;;11.87;100.00;100278.13;4955573;28;96570;-27
2023/10/24 10:35:01;;;;;;;4.95;2.92;;;;;;;11.92;100.00;100274.16;4955178;28;97533;-27
2023/10/24 10:37:35;;;;;;;3.80;2.60;;;;;;;11.94;100.00;100275.81;4970228;28;99905;-28
2023/10/24 10:40:19;;;;;;;6.55;2.60;;;;;;;11.98;100.00;100271.00;4937787;28;96637;-27
2023/10/24 10:42:48;;;;;;;2.92;2.30;;;;;;;11.97;100.00;100255.72;4970146;28;97096;-27
2023/10/24 10:45:32;;;;;;;3.92;2.35;;;;;;;11.99;100.00;100272.72;4968969;28;101128;-27
2023/10/24 10:48:04;;;;;;;3.53;2.38;;;;;;;11.98;100.00;100271.84;4954432;28;97967;-28
2023/10/24 10:50:34;;;;;;;3.95;2.05;;;;;;;12.01;100.00;100276.19;4954683;28;96711;-28
2023/10/24 10:53:05;;;;;;;3.83;2.22;;;;;;;11.95;100.00;100266.66;4954658;28;96812;-28
2023/10/24 10:55:55;;;;;;;6.70;2.20;;;;;;;11.92;100.00;100269.63;4969604;28;100876;-28
2023/10/24 10:58:45;;;;;;;2.90;1.58;;;;;;;11.93;100.00;100278.63;4954721;28;99253;-28
2023/10/24 11:01:19;;;;;;;2.50;1.38;;;;;;;11.86;100.00;100273.63;4954790;28;96608;-28
2023/10/24 11:03:47;;;;;;;2.40;1.85;;;;;;;11.85;100.00;100271.03;4970017;28;97010;-28
2023/10/24 11:06:15;;;;;;;2.00;1.33;;;;;;;11.75;100.00;100264.56;4954962;28;97930;-29
2023/10/24 11:08:43;;;;;;;2.00;1.38;;;;;;;11.73;100.00;100270.13;4969416;28;100910;-29
2023/10/24 11:11:10;;;;;;;2.45;1.50;;;;;;;11.69;100.00;100260.47;4954038;28;96646;-29
2023/10/24 11:13:43;;;;;;;6.30;1.35;;;;;;;11.65;100.00;100256.25;4954413;28;97654;-28